Time;durP1;ratioP1;P1;durP2;ratioP2;P2;SDS_P1;SDS_P2;PMS_P1;PMS_P2;Temp;Humidity;BMP_temperature;BMP_pressure;BME280_temperature;BME280_humidity;BME280_pressure;Samples;Min_cycle;Max_cycle;Signal;HPM_P1;HPM_P2
2022/08/20 03:01:02;;;;;;;5.28;4.78;;;26.60;53.20;;;;;;5611379;23;46308;-59
2022/08/20 03:03:28;;;;;;;4.93;4.43;;;26.60;53.20;;;;;;4861325;29;45512;-58
2022/08/20 03:05:55;;;;;;;5.10;4.60;;;26.70;53.20;;;;;;4881708;29;45256;-59
2022/08/20 03:08:21;;;;;;;4.57;4.18;;;26.70;53.10;;;;;;4883489;29;45012;-58
2022/08/20 03:10:47;;;;;;;6.40;4.77;;;26.70;53.10;;;;;;4882183;29;45141;-60
2022/08/20 03:13:13;;;;;;;4.97;4.03;;;26.70;53.10;;;;;;4880008;29;45999;-61
2022/08/20 03:15:40;;;;;;;5.40;4.90;;;26.70;53.00;;;;;;4898822;29;45155;-61
2022/08/20 03:18:06;;;;;;;4.57;4.18;;;26.60;53.00;;;;;;4898557;29;44702;-61
2022/08/20 03:20:32;;;;;;;6.70;4.63;;;26.70;53.00;;;;;;4898666;28;45231;-61
2022/08/20 03:22:57;;;;;;;5.15;4.65;;;26.70;53.00;;;;;;4896072;28;46067;-60
2022/08/20 03:25:23;;;;;;;5.00;4.50;;;26.70;53.00;;;;;;4899133;28;44802;-60
2022/08/20 03:27:49;;;;;;;4.70;4.28;;;26.70;52.90;;;;;;4893503;28;45501;-61
2022/08/20 03:30:15;;;;;;;5.03;4.53;;;26.70;52.90;;;;;;4898070;28;45481;-61
2022/08/20 03:32:41;;;;;;;4.80;4.35;;;26.70;52.90;;;;;;4895593;29;45247;-61
2022/08/20 03:35:08;;;;;;;5.60;4.80;;;26.70;52.80;;;;;;4898768;29;45601;-61
2022/08/20 03:37:34;;;;;;;6.93;4.53;;;26.70;52.80;;;;;;4894246;29;45573;-60
2022/08/20 03:39:59;;;;;;;5.03;4.60;;;26.70;52.80;;;;;;4899416;28;44911;-60
2022/08/20 03:42:25;;;;;;;4.60;4.10;;;26.70;52.70;;;;;;4898023;29;46147;-61
2022/08/20 03:44:52;;;;;;;4.85;4.22;;;26.70;52.70;;;;;;4898305;29;45372;-61
2022/08/20 03:47:18;;;;;;;6.00;4.95;;;26.70;52.60;;;;;;4895602;28;45055;-61
2022/08/20 03:49:43;;;;;;;5.50;5.00;;;26.70;52.60;;;;;;4898281;29;45411;-61
2022/08/20 03:52:09;;;;;;;5.73;5.10;;;26.70;52.70;;;;;;4896174;28;45128;-61
2022/08/20 03:54:35;;;;;;;5.40;4.90;;;26.70;52.70;;;;;;4897935;29;45220;-61
2022/08/20 03:57:01;;;;;;;7.00;5.07;;;26.70;52.70;;;;;;4895745;28;45337;-60
2022/08/20 03:59:27;;;;;;;6.18;5.28;;;26.70;52.70;;;;;;4896038;28;44765;-61
2022/08/20 04:01:53;;;;;;;5.82;5.10;;;26.70;53.30;;;;;;4894286;28;45671;-61
2022/08/20 04:04:19;;;;;;;5.47;4.90;;;26.70;52.80;;;;;;4896888;28;45251;-61
2022/08/20 04:06:46;;;;;;;5.10;4.60;;;26.70;52.70;;;;;;4892624;29;45438;-61
2022/08/20 04:09:13;;;;;;;5.95;4.78;;;26.70;52.70;;;;;;4891996;29;45468;-61
2022/08/20 04:11:41;;;;;;;5.67;4.60;;;26.70;52.60;;;;;;4898735;29;46010;-60
2022/08/20 04:14:07;;;;;;;5.55;4.68;;;26.70;52.70;;;;;;4895801;29;45162;-61
2022/08/20 04:16:33;;;;;;;4.93;4.43;;;26.70;52.60;;;;;;4896789;29;45483;-61
2022/08/20 04:18:58;;;;;;;5.00;4.50;;;26.70;52.50;;;;;;4897503;28;45721;-61
2022/08/20 04:21:24;;;;;;;5.80;4.27;;;26.70;52.50;;;;;;4896920;28;46447;-61
2022/08/20 04:23:51;;;;;;;5.15;4.35;;;26.70;52.50;;;;;;4897461;29;45182;-61
2022/08/20 04:26:17;;;;;;;5.40;4.90;;;26.70;52.40;;;;;;4894565;29;45476;-61
2022/08/20 04:28:43;;;;;;;5.40;4.80;;;26.70;52.40;;;;;;4893327;29;45418;-60
2022/08/20 04:31:11;;;;;;;7.70;4.77;;;26.70;52.40;;;;;;4897787;28;46087;-60
2022/08/20 04:33:37;;;;;;;5.50;4.95;;;26.70;52.40;;;;;;4898688;28;45202;-61
2022/08/20 04:36:04;;;;;;;5.20;4.70;;;26.70;52.60;;;;;;4897449;29;45140;-60
2022/08/20 04:38:31;;;;;;;5.50;4.93;;;26.70;52.30;;;;;;4897059;28;45279;-61
2022/08/20 04:40:57;;;;;;;5.22;4.57;;;26.70;52.20;;;;;;4898815;28;45392;-59
2022/08/20 04:43:33;;;;;;;4.88;4.38;;;26.70;52.30;;;;;;4894413;28;45470;-61
2022/08/20 04:46:00;;;;;;;5.50;4.53;;;26.70;52.20;;;;;;4901749;29;45537;-61
2022/08/20 04:48:27;;;;;;;5.00;4.50;;;26.70;52.20;;;;;;4899858;28;45318;-60
2022/08/20 04:50:53;;;;;;;4.55;4.15;;;26.80;52.20;;;;;;4896089;29;45443;-61
2022/08/20 04:53:22;;;;;;;6.18;4.70;;;26.70;52.20;;;;;;4893861;28;46272;-61
2022/08/20 04:55:48;;;;;;;4.75;4.28;;;26.70;52.10;;;;;;4899073;28;44766;-61
2022/08/20 04:58:19;;;;;;;5.70;4.53;;;26.80;52.20;;;;;;4898385;29;45591;-61
2022/08/20 05:00:49;;;;;;;5.40;4.90;;;26.70;52.10;;;;;;4891580;28;46187;-61
2022/08/20 05:03:15;;;;;;;4.88;4.47;;;26.80;52.10;;;;;;4882840;29;45078;-61
2022/08/20 05:05:41;;;;;;;5.25;4.75;;;26.80;52.10;;;;;;4882701;29;45264;-61
2022/08/20 05:08:07;;;;;;;5.43;4.35;;;26.80;52.20;;;;;;4879795;29;45014;-60
2022/08/20 05:10:33;;;;;;;5.40;4.43;;;26.80;52.20;;;;;;4880366;29;45347;-61
2022/08/20 05:12:59;;;;;;;6.43;5.00;;;26.80;52.20;;;;;;4879550;29;44923;-62
2022/08/20 05:15:25;;;;;;;5.13;4.63;;;26.80;52.20;;;;;;4881559;29;44704;-61
2022/08/20 05:17:54;;;;;;;5.03;4.60;;;26.80;52.20;;;;;;4866577;29;44927;-61
2022/08/20 05:20:20;;;;;;;5.65;4.50;;;26.80;52.20;;;;;;4882693;29;46512;-61
2022/08/20 05:22:46;;;;;;;5.53;5.00;;;26.80;52.20;;;;;;4865802;29;45515;-61
2022/08/20 05:25:11;;;;;;;5.10;4.60;;;26.80;52.30;;;;;;4883511;29;45138;-60
2022/08/20 05:27:38;;;;;;;5.50;5.00;;;26.80;52.20;;;;;;4886906;29;46238;-61
2022/08/20 05:30:06;;;;;;;7.25;5.35;;;26.80;52.30;;;;;;4884641;29;47106;-63
2022/08/20 05:32:32;;;;;;;6.67;5.30;;;26.80;52.20;;;;;;4864841;29;45298;-59
2022/08/20 05:34:59;;;;;;;5.30;4.80;;;26.80;52.30;;;;;;4866592;29;45300;-61
2022/08/20 05:37:25;;;;;;;5.60;5.20;;;26.80;52.30;;;;;;4882428;29;45293;-61
2022/08/20 05:39:50;;;;;;;5.68;4.70;;;26.80;52.30;;;;;;4884240;29;45965;-61
2022/08/20 05:42:16;;;;;;;5.20;4.70;;;26.80;52.30;;;;;;4881939;29;44716;-61
2022/08/20 05:44:42;;;;;;;5.30;4.65;;;26.80;52.30;;;;;;4879042;29;45403;-61
2022/08/20 05:47:08;;;;;;;4.90;4.50;;;26.80;52.30;;;;;;4881231;29;45580;-61
2022/08/20 05:49:33;;;;;;;5.70;4.70;;;26.80;52.40;;;;;;4868870;29;46193;-60
2022/08/20 05:51:59;;;;;;;5.77;4.70;;;26.80;52.40;;;;;;4874216;29;45334;-62
2022/08/20 05:54:24;;;;;;;5.43;4.63;;;26.80;52.40;;;;;;4888046;29;45208;-61
2022/08/20 05:56:50;;;;;;;5.53;4.88;;;26.80;52.40;;;;;;4878341;29;45116;-61
2022/08/20 05:59:16;;;;;;;6.60;5.90;;;26.80;52.30;;;;;;4878663;29;45382;-61
2022/08/20 06:01:42;;;;;;;5.80;5.13;;;26.80;52.40;;;;;;4886855;28;45278;-61
2022/08/20 06:04:24;;;;;;;6.87;5.80;;;26.80;52.40;;;;;;4885505;28;44941;-60
2022/08/20 06:06:55;;;;;;;5.85;5.35;;;26.80;52.40;;;;;;4894190;29;45828;-61
2022/08/20 06:09:23;;;;;;;6.15;5.65;;;26.80;52.40;;;;;;4894959;29;45974;-61
2022/08/20 06:11:48;;;;;;;6.75;5.40;;;26.80;52.40;;;;;;4894719;28;45623;-61
2022/08/20 06:14:15;;;;;;;7.30;5.65;;;26.80;52.40;;;;;;4892948;29;44748;-61
2022/08/20 06:16:41;;;;;;;6.07;5.47;;;26.80;52.40;;;;;;4894128;28;45434;-61
2022/08/20 06:19:07;;;;;;;6.10;5.50;;;26.80;52.40;;;;;;4895634;29;47310;-61
2022/08/20 06:21:32;;;;;;;6.20;5.60;;;26.80;52.40;;;;;;4896862;28;45443;-59
2022/08/20 06:23:58;;;;;;;6.27;5.77;;;26.80;52.40;;;;;;4894215;29;46577;-60
2022/08/20 06:26:24;;;;;;;6.20;5.65;;;26.90;52.50;;;;;;4894886;28;45168;-59
2022/08/20 06:28:49;;;;;;;7.50;6.43;;;26.80;52.40;;;;;;4895274;28;46866;-60
2022/08/20 06:31:15;;;;;;;6.43;5.90;;;26.80;52.40;;;;;;4895088;28;45526;-60
2022/08/20 06:33:41;;;;;;;7.10;6.47;;;26.90;52.50;;;;;;4894469;29;45346;-61
2022/08/20 06:36:07;;;;;;;6.40;5.90;;;26.80;52.40;;;;;;4894627;29;45582;-60
2022/08/20 06:38:32;;;;;;;7.60;6.77;;;26.90;52.50;;;;;;4896788;29;46074;-59
2022/08/20 06:40:58;;;;;;;7.10;6.50;;;26.90;52.60;;;;;;4897150;28;44975;-60
2022/08/20 06:43:24;;;;;;;6.70;6.10;;;26.80;52.50;;;;;;4893024;28;45266;-60
2022/08/20 06:45:52;;;;;;;6.93;6.30;;;26.90;52.60;;;;;;4895950;29;45265;-59
2022/08/20 06:48:38;;;;;;;7.88;7.18;;;26.80;52.60;;;;;;4892878;28;47967;-59
2022/08/20 06:51:08;;;;;;;7.82;7.13;;;26.90;52.60;;;;;;4895353;28;45081;-59
2022/08/20 06:53:34;;;;;;;7.97;7.17;;;26.90;52.50;;;;;;4894365;29;45456;-60
2022/08/20 06:55:59;;;;;;;7.23;6.23;;;26.90;52.50;;;;;;4895532;29;45288;-58
2022/08/20 06:58:25;;;;;;;7.30;6.70;;;26.80;52.40;;;;;;4893933;28;45548;-59
2022/08/20 07:00:51;;;;;;;7.43;6.70;;;26.90;52.40;;;;;;4891889;28;44758;-60
2022/08/20 07:03:16;;;;;;;7.50;6.80;;;26.90;52.50;;;;;;4893789;29;44926;-60
2022/08/20 07:05:43;;;;;;;7.20;6.50;;;26.80;52.30;;;;;;4893079;28;46367;-60
2022/08/20 07:08:10;;;;;;;7.07;6.47;;;26.80;52.20;;;;;;4894424;29;46177;-59
2022/08/20 07:10:36;;;;;;;7.63;6.78;;;26.80;52.30;;;;;;4894698;28;45580;-61
2022/08/20 07:13:01;;;;;;;7.40;6.70;;;26.80;52.30;;;;;;4893255;29;45485;-61
2022/08/20 07:15:27;;;;;;;8.03;6.37;;;26.80;52.80;;;;;;4890809;28;45884;-60
2022/08/20 07:17:58;;;;;;;7.70;7.00;;;26.80;52.20;;;;;;4895978;29;47188;-59
2022/08/20 07:20:24;;;;;;;7.32;6.53;;;26.80;52.20;;;;;;4886558;29;46258;-59
2022/08/20 07:22:50;;;;;;;7.40;6.70;;;26.80;52.20;;;;;;4890168;28;45756;-60
2022/08/20 07:25:17;;;;;;;7.35;6.65;;;26.80;52.30;;;;;;4894286;29;45318;-61
2022/08/20 07:27:42;;;;;;;6.45;5.85;;;26.80;52.40;;;;;;4893202;29;45988;-60
2022/08/20 07:32:56;;;;;;;8.27;7.47;;;26.80;52.30;;;;;;4891307;28;45462;-59
2022/08/20 07:35:22;;;;;;;8.50;7.63;;;26.80;52.40;;;;;;4891294;28;45556;-60
2022/08/20 07:37:48;;;;;;;8.67;7.67;;;26.80;52.40;;;;;;4891186;29;45151;-60
2022/08/20 07:40:20;;;;;;;7.75;6.70;;;26.80;52.40;;;;;;4891377;28;45628;-60
2022/08/20 07:42:47;;;;;;;7.57;6.88;;;26.80;52.50;;;;;;4890794;28;45121;-59
2022/08/20 07:45:14;;;;;;;7.05;6.35;;;26.80;52.60;;;;;;4890953;28;46403;-60
2022/08/20 07:47:40;;;;;;;9.57;7.13;;;26.70;52.50;;;;;;4892633;29;46194;-60
2022/08/20 07:50:07;;;;;;;7.67;5.80;;;26.70;52.40;;;;;;4892473;28;45007;-60
2022/08/20 07:52:35;;;;;;;7.25;6.55;;;26.70;52.50;;;;;;4890990;28;45487;-61
2022/08/20 07:55:02;;;;;;;7.35;6.05;;;26.70;52.50;;;;;;4889014;28;45166;-59
2022/08/20 07:57:28;;;;;;;8.13;6.03;;;26.70;52.60;;;;;;4889985;28;46213;-60
2022/08/20 07:59:59;;;;;;;8.48;5.95;;;26.70;52.60;;;;;;4890293;28;45206;-61
2022/08/20 08:02:27;;;;;;;7.17;6.03;;;26.70;52.60;;;;;;4888600;28;45557;-61
2022/08/20 08:04:53;;;;;;;7.05;6.35;;;26.70;52.50;;;;;;4888359;29;45425;-61
2022/08/20 08:07:19;;;;;;;7.00;6.03;;;26.70;52.60;;;;;;4888420;28;45984;-61
2022/08/20 08:09:45;;;;;;;6.40;5.80;;;26.70;52.50;;;;;;4888144;28;45357;-61
2022/08/20 08:12:12;;;;;;;6.82;6.00;;;26.70;52.60;;;;;;4890001;29;45426;-61
2022/08/20 08:14:38;;;;;;;6.80;6.10;;;26.70;52.70;;;;;;4873389;29;45264;-60
2022/08/20 08:17:03;;;;;;;6.85;5.63;;;26.70;52.60;;;;;;4887664;29;46014;-61
2022/08/20 08:19:35;;;;;;;6.40;5.70;;;26.70;52.50;;;;;;4892575;28;45317;-61
2022/08/20 08:22:00;;;;;;;7.90;5.43;;;26.70;52.60;;;;;;4891504;29;45374;-61
2022/08/20 08:24:26;;;;;;;6.53;5.90;;;26.70;52.40;;;;;;4895793;29;45267;-59
2022/08/20 08:26:51;;;;;;;8.73;5.80;;;26.80;52.50;;;;;;4894684;28;45967;-60
2022/08/20 08:29:17;;;;;;;7.20;5.73;;;26.70;52.40;;;;;;4890298;29;45207;-61
2022/08/20 08:31:43;;;;;;;6.57;5.97;;;26.80;52.40;;;;;;4893025;28;45270;-61
2022/08/20 08:34:08;;;;;;;7.60;6.53;;;26.80;52.40;;;;;;4894802;29;45199;-61
2022/08/20 08:36:34;;;;;;;7.13;6.40;;;26.80;52.30;;;;;;4893038;28;45604;-61
2022/08/20 08:38:59;;;;;;;6.60;5.90;;;26.80;52.20;;;;;;4892183;29;45311;-60
2022/08/20 08:41:36;;;;;;;6.13;5.53;;;26.80;52.10;;;;;;4891459;28;45576;-60
2022/08/20 08:44:11;;;;;;;6.95;5.78;;;26.80;52.20;;;;;;4908159;28;45314;-60
2022/08/20 08:46:39;;;;;;;6.20;5.60;;;26.80;52.30;;;;;;4894066;28;45454;-59
2022/08/20 08:49:05;;;;;;;7.65;6.82;;;26.80;52.20;;;;;;4880988;28;45269;-63
2022/08/20 08:51:41;;;;;;;7.83;6.30;;;26.80;52.20;;;;;;4892592;28;45684;-59
2022/08/20 08:54:07;;;;;;;7.80;6.72;;;26.90;52.10;;;;;;4874707;29;45218;-60
2022/08/20 08:56:32;;;;;;;7.60;6.40;;;26.90;52.10;;;;;;4894157;29;47011;-60
2022/08/20 08:59:01;;;;;;;6.70;6.05;;;26.90;52.10;;;;;;4891973;29;45325;-61
2022/08/20 09:01:27;;;;;;;6.85;6.15;;;26.90;52.10;;;;;;4875491;29;44748;-59
2022/08/20 09:03:52;;;;;;;9.03;6.50;;;26.90;52.20;;;;;;4892168;29;45917;-60
2022/08/20 09:06:20;;;;;;;7.20;6.50;;;26.90;52.20;;;;;;4888600;28;45608;-60
2022/08/20 09:08:48;;;;;;;8.35;6.63;;;26.90;52.00;;;;;;4874530;29;45342;-60
2022/08/20 09:11:14;;;;;;;7.45;6.57;;;26.90;51.90;;;;;;4890203;28;46136;-60
2022/08/20 09:13:41;;;;;;;6.10;5.50;;;26.90;52.00;;;;;;4895972;29;45459;-59
2022/08/20 09:16:07;;;;;;;7.32;6.63;;;26.90;52.00;;;;;;4889925;29;45243;-61
2022/08/20 09:18:33;;;;;;;7.82;6.88;;;26.90;52.00;;;;;;4888399;28;46148;-58
2022/08/20 09:20:59;;;;;;;8.97;7.00;;;26.90;51.80;;;;;;4895895;29;45173;-60
2022/08/20 09:23:24;;;;;;;7.43;6.73;;;26.90;51.80;;;;;;4895317;29;45556;-59
2022/08/20 09:25:50;;;;;;;6.00;5.40;;;26.90;51.80;;;;;;4896462;28;46964;-60
2022/08/20 09:28:15;;;;;;;7.20;6.50;;;26.90;51.80;;;;;;4889630;29;46135;-61
2022/08/20 09:30:41;;;;;;;6.47;5.88;;;26.90;51.70;;;;;;4892433;29;45520;-61
2022/08/20 09:33:06;;;;;;;9.10;6.45;;;26.90;51.90;;;;;;4891396;29;45315;-59
2022/08/20 09:35:33;;;;;;;7.82;7.03;;;26.90;51.80;;;;;;4895013;29;46270;-61
2022/08/20 09:37:59;;;;;;;8.33;6.80;;;26.90;51.80;;;;;;4894759;28;45478;-61
2022/08/20 09:40:25;;;;;;;7.22;6.53;;;27.00;51.90;;;;;;4895999;28;44731;-60
2022/08/20 09:42:50;;;;;;;8.70;6.70;;;27.00;51.90;;;;;;4896034;29;45282;-59
2022/08/20 09:45:16;;;;;;;7.70;6.35;;;27.00;51.90;;;;;;4891302;28;47028;-61
2022/08/20 09:47:42;;;;;;;7.00;6.40;;;27.00;51.70;;;;;;4887681;29;45140;-59
2022/08/20 09:50:08;;;;;;;8.40;6.28;;;27.00;51.60;;;;;;4897401;28;44996;-59
2022/08/20 09:52:45;;;;;;;6.32;5.70;;;27.00;51.70;;;;;;4892194;29;45673;-60
2022/08/20 09:55:10;;;;;;;8.35;5.57;;;27.00;51.80;;;;;;4895683;29;46106;-61
2022/08/20 09:57:36;;;;;;;7.53;6.50;;;27.00;51.70;;;;;;4892361;28;44862;-60
2022/08/20 10:00:07;;;;;;;7.43;5.93;;;27.00;51.70;;;;;;4876563;29;45612;-60
2022/08/20 10:02:32;;;;;;;8.85;6.38;;;27.00;51.80;;;;;;4897072;29;45275;-60
2022/08/20 10:04:58;;;;;;;7.57;6.20;;;27.00;51.70;;;;;;4892488;29;45318;-60
2022/08/20 10:07:23;;;;;;;7.25;6.32;;;27.00;51.60;;;;;;4896520;28;45519;-60
2022/08/20 10:09:49;;;;;;;7.80;6.28;;;27.00;51.50;;;;;;4894323;28;45490;-60
2022/08/20 10:12:14;;;;;;;6.97;5.93;;;27.00;51.40;;;;;;4894374;28;45369;-60
2022/08/20 10:14:40;;;;;;;6.83;6.13;;;27.00;51.40;;;;;;4892943;28;45977;-60
2022/08/20 10:17:05;;;;;;;7.93;6.23;;;27.00;51.30;;;;;;4897900;28;45231;-60
2022/08/20 10:19:31;;;;;;;7.83;6.30;;;27.00;51.30;;;;;;4891257;28;45580;-60
2022/08/20 10:21:57;;;;;;;9.47;6.83;;;27.00;51.30;;;;;;4889209;28;45667;-60
2022/08/20 10:24:23;;;;;;;7.32;6.45;;;27.10;51.30;;;;;;4891554;28;46183;-61
2022/08/20 10:26:48;;;;;;;7.60;6.80;;;27.00;51.10;;;;;;4890880;28;45115;-60
2022/08/20 10:29:14;;;;;;;7.60;6.90;;;27.00;51.40;;;;;;4895607;28;45301;-59
2022/08/20 10:31:39;;;;;;;8.65;6.55;;;27.10;51.40;;;;;;4891609;28;45310;-60
2022/08/20 10:34:05;;;;;;;7.95;7.00;;;27.00;51.30;;;;;;4891468;28;46286;-60
2022/08/20 10:36:30;;;;;;;7.55;6.78;;;27.00;51.30;;;;;;4894993;29;45230;-58
2022/08/20 10:38:56;;;;;;;8.88;6.95;;;27.10;51.30;;;;;;4897302;28;44674;-60
2022/08/20 10:41:22;;;;;;;7.10;6.13;;;27.00;51.20;;;;;;4895722;28;44753;-58
2022/08/20 10:43:47;;;;;;;8.53;6.63;;;27.00;51.20;;;;;;4890865;29;46224;-59
2022/08/20 10:46:13;;;;;;;9.50;7.30;;;27.10;51.40;;;;;;4895536;29;45423;-59
2022/08/20 10:48:39;;;;;;;7.90;6.30;;;27.10;51.40;;;;;;4896265;28;45041;-60
2022/08/20 10:51:04;;;;;;;7.73;6.70;;;27.10;51.50;;;;;;4891174;28;45478;-59
2022/08/20 10:53:30;;;;;;;7.43;6.63;;;27.10;51.50;;;;;;4895979;28;45499;-60
2022/08/20 10:55:56;;;;;;;9.02;6.75;;;27.10;51.50;;;;;;4890439;28;44746;-59
2022/08/20 10:58:22;;;;;;;7.40;6.70;;;27.10;51.60;;;;;;4905217;28;45432;-60
2022/08/20 11:00:48;;;;;;;9.68;7.10;;;27.10;51.60;;;;;;4889292;28;45085;-60
2022/08/20 11:03:13;;;;;;;7.63;6.82;;;27.10;51.60;;;;;;4894102;28;46257;-61
2022/08/20 11:05:39;;;;;;;10.35;7.60;;;27.10;51.70;;;;;;4894318;29;45188;-59
2022/08/20 11:08:05;;;;;;;13.30;7.75;;;27.10;52.40;;;;;;4895200;28;44715;-61
2022/08/20 11:10:32;;;;;;;21.55;8.20;;;27.20;51.60;;;;;;4892715;28;45822;-61
2022/08/20 11:12:59;;;;;;;15.95;7.60;;;27.20;51.50;;;;;;4893087;28;46407;-60
2022/08/20 11:15:24;;;;;;;12.23;7.37;;;27.20;51.50;;;;;;4890420;28;45645;-60
2022/08/20 11:17:50;;;;;;;12.30;7.30;;;27.20;51.60;;;;;;4890968;28;45222;-61
2022/08/20 11:20:17;;;;;;;13.67;7.70;;;27.20;51.60;;;;;;4890659;28;45890;-60
2022/08/20 11:22:42;;;;;;;13.73;7.70;;;27.20;51.50;;;;;;4891863;28;47187;-58
2022/08/20 11:25:08;;;;;;;20.73;8.40;;;27.20;51.40;;;;;;4893512;28;45256;-60
2022/08/20 11:27:39;;;;;;;12.85;6.82;;;27.30;51.30;;;;;;4896035;28;45390;-61
2022/08/20 11:30:06;;;;;;;10.55;7.05;;;27.20;51.20;;;;;;4894593;29;45353;-60
2022/08/20 11:32:32;;;;;;;8.50;7.23;;;27.30;51.20;;;;;;4897526;28;46239;-61
2022/08/20 11:34:57;;;;;;;13.30;7.40;;;27.30;51.00;;;;;;4890527;29;45110;-60
2022/08/20 11:37:23;;;;;;;11.70;7.83;;;27.30;50.90;;;;;;4891168;29;45263;-61
2022/08/20 11:39:49;;;;;;;9.87;7.63;;;27.40;51.00;;;;;;4891851;28;45342;-62
2022/08/20 11:42:15;;;;;;;9.93;8.00;;;27.40;50.70;;;;;;4893013;29;46315;-60
2022/08/20 11:44:40;;;;;;;13.17;8.13;;;27.40;50.40;;;;;;4891580;29;45382;-61
2022/08/20 11:47:06;;;;;;;11.63;7.77;;;27.40;50.30;;;;;;4891063;28;45414;-61
2022/08/20 11:49:33;;;;;;;10.07;7.90;;;27.50;50.10;;;;;;4893224;28;45422;-60
2022/08/20 11:51:59;;;;;;;9.75;8.13;;;27.50;49.80;;;;;;4892096;28;46045;-61
2022/08/20 11:54:27;;;;;;;10.93;7.93;;;27.50;49.80;;;;;;4887949;28;46205;-61
2022/08/20 11:56:55;;;;;;;9.83;7.23;;;27.50;49.60;;;;;;4893916;29;45268;-61
2022/08/20 11:59:20;;;;;;;10.00;7.57;;;27.60;49.60;;;;;;4889760;28;45612;-61
2022/08/20 12:01:46;;;;;;;10.00;8.03;;;27.60;49.50;;;;;;4887515;28;46007;-61
2022/08/20 12:04:13;;;;;;;10.90;8.50;;;27.60;49.60;;;;;;4892041;29;64815;-59
2022/08/20 12:06:39;;;;;;;11.88;8.80;;;27.60;49.40;;;;;;4893595;28;44683;-61
2022/08/20 12:09:05;;;;;;;10.68;7.72;;;27.60;49.30;;;;;;4893038;29;45248;-61
2022/08/20 12:11:30;;;;;;;13.10;7.82;;;27.60;49.10;;;;;;4894098;28;45908;-61
2022/08/20 12:13:56;;;;;;;9.27;7.53;;;27.70;49.00;;;;;;4892258;28;45350;-61
2022/08/20 12:16:21;;;;;;;8.70;7.13;;;27.70;49.50;;;;;;4894839;28;45465;-61
2022/08/20 12:18:47;;;;;;;9.67;7.60;;;27.70;48.90;;;;;;4895907;29;45541;-62
2022/08/20 12:21:13;;;;;;;11.43;7.97;;;27.70;48.80;;;;;;4893649;28;46069;-62
2022/08/20 12:23:38;;;;;;;12.07;8.40;;;27.70;48.60;;;;;;4892214;28;45545;-60
2022/08/20 12:26:04;;;;;;;10.60;7.87;;;27.70;48.50;;;;;;4890520;28;45953;-61
2022/08/20 12:28:30;;;;;;;8.20;7.03;;;27.70;49.20;;;;;;4893295;28;45592;-60
2022/08/20 12:30:56;;;;;;;10.50;7.00;;;27.80;48.70;;;;;;4893577;28;45713;-60
2022/08/20 12:33:22;;;;;;;8.95;6.40;;;27.70;48.80;;;;;;4891447;28;45635;-63
2022/08/20 12:35:47;;;;;;;8.63;6.68;;;27.70;48.90;;;;;;4893995;29;45410;-61
2022/08/20 12:38:13;;;;;;;9.27;6.00;;;27.70;49.00;;;;;;4891905;28;44925;-61
2022/08/20 12:40:39;;;;;;;10.33;6.30;;;27.70;49.20;;;;;;4891448;28;45230;-59
2022/08/20 12:43:05;;;;;;;7.57;6.30;;;27.80;49.40;;;;;;4893474;29;44914;-61
2022/08/20 12:45:31;;;;;;;8.23;5.93;;;27.70;49.50;;;;;;4893090;29;44901;-61
2022/08/20 12:48:02;;;;;;;7.47;6.10;;;27.70;49.60;;;;;;4892196;29;45245;-61
2022/08/20 12:50:28;;;;;;;6.85;6.10;;;27.70;50.00;;;;;;4890320;29;45376;-62
2022/08/20 12:52:54;;;;;;;8.33;6.20;;;27.80;50.70;;;;;;4891062;28;44971;-69
2022/08/20 12:55:20;;;;;;;9.40;6.07;;;27.80;51.10;;;;;;4889558;29;45624;-61
2022/08/20 12:57:48;;;;;;;8.00;6.57;;;27.70;51.30;;;;;;4893578;29;45739;-61
2022/08/20 13:00:31;;;;;;;7.03;5.80;;;27.70;51.60;;;;;;4890679;28;46958;-60
2022/08/20 13:02:58;;;;;;;7.30;6.55;;;27.70;51.80;;;;;;4892425;28;45080;-63
2022/08/20 13:05:23;;;;;;;6.70;6.10;;;27.70;51.90;;;;;;4880782;28;45748;-59
2022/08/20 13:07:49;;;;;;;8.57;6.47;;;27.70;52.00;;;;;;4885325;28;45276;-61
2022/08/20 13:10:29;;;;;;;7.90;6.63;;;27.70;52.00;;;;;;4883692;28;45690;-59
2022/08/20 13:12:55;;;;;;;6.75;6.00;;;27.70;52.00;;;;;;4891035;29;45326;-61
2022/08/20 13:15:21;;;;;;;8.13;6.07;;;27.70;51.80;;;;;;4894297;28;46151;-65
2022/08/20 13:17:58;;;;;;;8.40;6.03;;;27.70;51.90;;;;;;4876002;29;45558;-66
2022/08/20 13:20:25;;;;;;;5.70;5.00;;;27.80;51.80;;;;;;4888362;28;47003;-65
2022/08/20 13:22:54;;;;;;;7.25;5.32;;;27.80;52.00;;;;;;4892061;28;45225;-64
2022/08/20 13:25:19;;;;;;;14.02;5.00;;;27.80;51.90;;;;;;4893229;29;45295;-64
2022/08/20 13:27:45;;;;;;;15.73;6.10;;;27.70;51.70;;;;;;4891569;28;45532;-65
2022/08/20 13:30:16;;;;;;;9.10;5.35;;;27.70;51.60;;;;;;4873527;28;46248;-65
2022/08/20 13:32:41;;;;;;;9.98;5.20;;;27.70;52.20;;;;;;4891652;29;44798;-64
2022/08/20 13:35:08;;;;;;;10.07;5.43;;;27.70;51.60;;;;;;4892957;29;45322;-64
2022/08/20 13:37:33;;;;;;;12.00;5.85;;;27.80;51.50;;;;;;4892982;29;45460;-65
2022/08/20 13:39:59;;;;;;;5.90;5.18;;;27.80;51.50;;;;;;4876275;29;47594;-64
2022/08/20 13:42:25;;;;;;;7.68;4.70;;;27.70;51.30;;;;;;4861406;29;45383;-64
2022/08/20 13:44:51;;;;;;;6.95;5.38;;;27.70;51.20;;;;;;4894429;28;45615;-64
2022/08/20 13:47:18;;;;;;;11.27;5.97;;;27.70;51.20;;;;;;4877251;29;45456;-64
2022/08/20 13:49:44;;;;;;;7.53;5.10;;;27.80;51.30;;;;;;4893224;28;46304;-66
2022/08/20 13:52:10;;;;;;;7.50;5.40;;;27.80;51.20;;;;;;4892019;28;45314;-65
2022/08/20 13:54:36;;;;;;;8.68;5.57;;;27.80;51.20;;;;;;4893237;28;44988;-65
2022/08/20 13:57:07;;;;;;;7.07;5.13;;;27.80;51.20;;;;;;4892672;29;44901;-65
2022/08/20 13:59:41;;;;;;;8.18;5.90;;;27.80;51.20;;;;;;4892425;29;45966;-65
2022/08/20 14:02:07;;;;;;;6.60;5.03;;;27.80;51.10;;;;;;4874951;29;46195;-65
2022/08/20 14:04:33;;;;;;;6.97;5.85;;;27.80;51.10;;;;;;4892491;29;45473;-65
2022/08/20 14:07:26;;;;;;;8.30;5.45;;;27.80;51.00;;;;;;4892444;28;45508;-65
2022/08/20 14:09:55;;;;;;;7.05;6.35;;;27.80;51.20;;;;;;4893173;29;46101;-65
2022/08/20 14:12:22;;;;;;;6.57;5.63;;;27.80;51.20;;;;;;4892006;28;45612;-65
2022/08/20 14:14:47;;;;;;;8.07;5.15;;;27.80;51.30;;;;;;4892100;28;47338;-66
2022/08/20 14:17:20;;;;;;;7.30;6.60;;;27.80;51.40;;;;;;4894195;29;45602;-65
2022/08/20 14:19:46;;;;;;;8.10;5.43;;;27.80;51.60;;;;;;4892286;28;45179;-65
2022/08/20 14:22:12;;;;;;;6.80;5.60;;;27.80;51.70;;;;;;4874434;29;45204;-65
2022/08/20 14:24:38;;;;;;;8.35;6.00;;;27.80;51.80;;;;;;4892341;28;45393;-66
2022/08/20 14:27:05;;;;;;;6.25;5.55;;;27.80;51.70;;;;;;4893207;28;45592;-65
2022/08/20 14:29:35;;;;;;;7.20;5.65;;;27.80;51.70;;;;;;4890788;28;45991;-65
2022/08/20 14:32:02;;;;;;;5.55;5.05;;;27.80;51.80;;;;;;4890987;28;45381;-64
2022/08/20 14:34:27;;;;;;;5.93;5.20;;;27.80;51.80;;;;;;4892074;29;45814;-67
2022/08/20 14:36:53;;;;;;;5.97;4.80;;;27.80;51.90;;;;;;4891665;28;44778;-64
2022/08/20 14:39:18;;;;;;;5.13;4.50;;;27.80;52.00;;;;;;4890581;28;46110;-66
2022/08/20 14:41:44;;;;;;;4.73;4.27;;;27.80;52.10;;;;;;4891376;28;45938;-64
2022/08/20 14:44:09;;;;;;;4.90;4.40;;;27.80;52.10;;;;;;4890884;29;46073;-65
2022/08/20 14:46:35;;;;;;;6.05;4.72;;;27.80;52.20;;;;;;4892233;28;45536;-65
2022/08/20 14:49:01;;;;;;;4.25;3.83;;;27.80;52.20;;;;;;4874582;29;45680;-65
2022/08/20 14:51:26;;;;;;;6.75;3.80;;;27.80;52.20;;;;;;4894028;29;44829;-65
2022/08/20 14:53:52;;;;;;;4.20;3.80;;;27.80;52.20;;;;;;4891253;28;45569;-66
2022/08/20 14:56:17;;;;;;;4.00;3.60;;;27.80;52.20;;;;;;4876836;29;45037;-64
2022/08/20 14:58:43;;;;;;;4.40;4.00;;;27.80;52.20;;;;;;4890652;28;46539;-65
2022/08/20 15:01:08;;;;;;;4.03;3.63;;;27.90;52.10;;;;;;4890031;28;45066;-65
2022/08/20 15:03:34;;;;;;;5.07;3.90;;;27.90;52.00;;;;;;4891476;29;45208;-64
2022/08/20 15:06:00;;;;;;;4.38;3.75;;;27.90;52.00;;;;;;4889818;28;45515;-64
2022/08/20 15:08:25;;;;;;;5.20;3.90;;;27.90;51.90;;;;;;4888702;28;45512;-66
2022/08/20 15:10:51;;;;;;;3.90;3.60;;;27.90;51.90;;;;;;4891306;28;45519;-66
2022/08/20 15:13:16;;;;;;;4.20;3.80;;;27.90;51.80;;;;;;4893256;29;45732;-65
2022/08/20 15:15:42;;;;;;;4.10;3.40;;;27.90;51.80;;;;;;4892970;29;45241;-64
2022/08/20 15:18:08;;;;;;;3.77;3.47;;;27.90;51.70;;;;;;4874017;28;46128;-65
2022/08/20 15:20:34;;;;;;;3.90;3.60;;;27.90;51.80;;;;;;4892273;29;45317;-65
2022/08/20 15:23:00;;;;;;;4.25;3.35;;;27.90;51.70;;;;;;4860114;29;45225;-65
2022/08/20 15:25:28;;;;;;;3.85;3.10;;;27.90;51.70;;;;;;4892949;28;45327;-65
2022/08/20 15:27:55;;;;;;;4.82;3.40;;;27.90;51.80;;;;;;4890418;29;45110;-64
2022/08/20 15:30:21;;;;;;;4.60;3.50;;;27.90;51.80;;;;;;4888888;28;45687;-64
2022/08/20 15:32:47;;;;;;;3.33;3.03;;;27.90;51.80;;;;;;4891657;29;45370;-65
2022/08/20 15:35:13;;;;;;;3.65;3.25;;;27.90;51.80;;;;;;4890741;29;44916;-65
2022/08/20 15:37:40;;;;;;;3.53;3.23;;;27.90;51.80;;;;;;4893531;29;45327;-65
2022/08/20 15:40:07;;;;;;;4.05;2.90;;;27.90;51.80;;;;;;4890455;29;45732;-65
2022/08/20 15:42:32;;;;;;;3.28;3.00;;;27.90;51.80;;;;;;4876317;29;44701;-65
2022/08/20 15:44:58;;;;;;;4.10;3.30;;;27.90;51.90;;;;;;4892008;29;45347;-65